sensor_id;sensor_type;location;lat;lon;timestamp;P1;durP1;ratioP1;P2;durP2;ratioP2
66669;SDS011;53568;52.164;4.472;2022-11-21T00:00:53;33.53;;;32.69;;
66669;SDS011;53568;52.164;4.472;2022-11-21T00:03:19;33.85;;;33.05;;
66669;SDS011;53568;52.164;4.472;2022-11-21T00:05:46;35.74;;;34.68;;
66669;SDS011;53568;52.164;4.472;2022-11-21T00:08:14;37.06;;;36.07;;
66669;SDS011;53568;52.164;4.472;2022-11-21T00:10:42;37.84;;;36.84;;
66669;SDS011;53568;52.164;4.472;2022-11-21T00:13:11;39.18;;;37.79;;
66669;SDS011;53568;52.164;4.472;2022-11-21T00:15:41;39.79;;;38.69;;
66669;SDS011;53568;52.164;4.472;2022-11-21T00:18:08;39.99;;;38.85;;
66669;SDS011;53568;52.164;4.472;2022-11-21T00:20:35;40.76;;;39.32;;
66669;SDS011;53568;52.164;4.472;2022-11-21T00:23:01;41.27;;;39.92;;
66669;SDS011;53568;52.164;4.472;2022-11-21T00:25:27;42.87;;;41.34;;
66669;SDS011;53568;52.164;4.472;2022-11-21T00:27:53;42.12;;;40.58;;
66669;SDS011;53568;52.164;4.472;2022-11-21T00:30:18;42.49;;;41.02;;
66669;SDS011;53568;52.164;4.472;2022-11-21T00:32:44;44.19;;;42.77;;
66669;SDS011;53568;52.164;4.472;2022-11-21T00:35:09;43.81;;;42.52;;
66669;SDS011;53568;52.164;4.472;2022-11-21T00:37:35;45.70;;;43.63;;
66669;SDS011;53568;52.164;4.472;2022-11-21T00:40:00;45.14;;;43.32;;
66669;SDS011;53568;52.164;4.472;2022-11-21T00:42:26;44.20;;;42.56;;
66669;SDS011;53568;52.164;4.472;2022-11-21T00:44:52;43.31;;;41.63;;
66669;SDS011;53568;52.164;4.472;2022-11-21T00:47:17;44.95;;;42.84;;
66669;SDS011;53568;52.164;4.472;2022-11-21T00:49:43;45.87;;;43.61;;
66669;SDS011;53568;52.164;4.472;2022-11-21T00:52:08;44.54;;;42.51;;
66669;SDS011;53568;52.164;4.472;2022-11-21T00:54:34;44.89;;;42.98;;
66669;SDS011;53568;52.164;4.472;2022-11-21T00:57:00;44.47;;;42.68;;
66669;SDS011;53568;52.164;4.472;2022-11-21T00:59:26;44.43;;;42.36;;
66669;SDS011;53568;52.164;4.472;2022-11-21T01:01:51;44.53;;;42.42;;
66669;SDS011;53568;52.164;4.472;2022-11-21T01:04:17;44.17;;;42.29;;
66669;SDS011;53568;52.164;4.472;2022-11-21T01:06:42;44.65;;;42.85;;
66669;SDS011;53568;52.164;4.472;2022-11-21T01:09:08;44.93;;;42.81;;
66669;SDS011;53568;52.164;4.472;2022-11-21T01:11:33;45.47;;;43.08;;
66669;SDS011;53568;52.164;4.472;2022-11-21T01:13:59;46.48;;;43.93;;
66669;SDS011;53568;52.164;4.472;2022-11-21T01:16:26;45.93;;;43.11;;
66669;SDS011;53568;52.164;4.472;2022-11-21T01:18:53;43.77;;;41.91;;
66669;SDS011;53568;52.164;4.472;2022-11-21T01:21:21;43.77;;;41.48;;
66669;SDS011;53568;52.164;4.472;2022-11-21T01:23:52;42.73;;;40.37;;
66669;SDS011;53568;52.164;4.472;2022-11-21T01:26:20;42.78;;;40.65;;
66669;SDS011;53568;52.164;4.472;2022-11-21T01:28:48;43.62;;;41.16;;
66669;SDS011;53568;52.164;4.472;2022-11-21T01:31:27;42.64;;;40.58;;
66669;SDS011;53568;52.164;4.472;2022-11-21T01:33:55;42.44;;;40.29;;
66669;SDS011;53568;52.164;4.472;2022-11-21T01:38:48;41.63;;;39.79;;
66669;SDS011;53568;52.164;4.472;2022-11-21T01:41:18;42.65;;;40.39;;
66669;SDS011;53568;52.164;4.472;2022-11-21T01:43:45;43.04;;;40.73;;
66669;SDS011;53568;52.164;4.472;2022-11-21T01:46:21;42.57;;;40.59;;
66669;SDS011;53568;52.164;4.472;2022-11-21T01:51:39;45.62;;;42.78;;
66669;SDS011;53568;52.164;4.472;2022-11-21T01:56:47;45.26;;;42.47;;
66669;SDS011;53568;52.164;4.472;2022-11-21T01:59:23;44.66;;;41.69;;
66669;SDS011;53568;52.164;4.472;2022-11-21T02:02:16;43.46;;;40.77;;
66669;SDS011;53568;52.164;4.472;2022-11-21T02:04:47;42.73;;;40.21;;
66669;SDS011;53568;52.164;4.472;2022-11-21T02:07:14;40.58;;;38.58;;
66669;SDS011;53568;52.164;4.472;2022-11-21T02:09:44;41.66;;;39.02;;
66669;SDS011;53568;52.164;4.472;2022-11-21T02:12:20;41.59;;;39.13;;
66669;SDS011;53568;52.164;4.472;2022-11-21T02:14:54;42.78;;;39.80;;
66669;SDS011;53568;52.164;4.472;2022-11-21T02:17:20;41.50;;;38.79;;
66669;SDS011;53568;52.164;4.472;2022-11-21T02:19:53;41.32;;;39.09;;
66669;SDS011;53568;52.164;4.472;2022-11-21T02:25:18;42.04;;;39.65;;
66669;SDS011;53568;52.164;4.472;2022-11-21T02:27:48;40.73;;;38.54;;
66669;SDS011;53568;52.164;4.472;2022-11-21T02:30:16;40.22;;;38.13;;
66669;SDS011;53568;52.164;4.472;2022-11-21T02:32:44;41.41;;;38.83;;
66669;SDS011;53568;52.164;4.472;2022-11-21T02:35:16;40.02;;;37.62;;
66669;SDS011;53568;52.164;4.472;2022-11-21T02:37:46;39.81;;;37.96;;
66669;SDS011;53568;52.164;4.472;2022-11-21T02:40:21;40.40;;;38.29;;
66669;SDS011;53568;52.164;4.472;2022-11-21T02:42:57;40.39;;;38.42;;
66669;SDS011;53568;52.164;4.472;2022-11-21T02:45:41;39.80;;;37.94;;
66669;SDS011;53568;52.164;4.472;2022-11-21T02:48:08;42.30;;;39.79;;
66669;SDS011;53568;52.164;4.472;2022-11-21T02:50:35;40.48;;;38.29;;
66669;SDS011;53568;52.164;4.472;2022-11-21T02:53:03;40.99;;;38.71;;
66669;SDS011;53568;52.164;4.472;2022-11-21T02:55:30;41.36;;;39.09;;
66669;SDS011;53568;52.164;4.472;2022-11-21T02:57:56;42.91;;;40.91;;
66669;SDS011;53568;52.164;4.472;2022-11-21T03:00:21;40.72;;;38.73;;
66669;SDS011;53568;52.164;4.472;2022-11-21T03:02:47;42.36;;;39.90;;
66669;SDS011;53568;52.164;4.472;2022-11-21T03:05:13;41.92;;;39.84;;
66669;SDS011;53568;52.164;4.472;2022-11-21T03:07:41;41.85;;;39.82;;
66669;SDS011;53568;52.164;4.472;2022-11-21T03:10:08;41.99;;;39.69;;
66669;SDS011;53568;52.164;4.472;2022-11-21T03:12:35;41.01;;;38.53;;
66669;SDS011;53568;52.164;4.472;2022-11-21T03:15:04;40.42;;;37.76;;
66669;SDS011;53568;52.164;4.472;2022-11-21T03:17:32;39.10;;;36.77;;
66669;SDS011;53568;52.164;4.472;2022-11-21T03:19:57;39.73;;;37.28;;
66669;SDS011;53568;52.164;4.472;2022-11-21T03:22:23;40.60;;;37.97;;
66669;SDS011;53568;52.164;4.472;2022-11-21T03:24:49;41.16;;;38.99;;
66669;SDS011;53568;52.164;4.472;2022-11-21T03:27:14;41.57;;;39.21;;
66669;SDS011;53568;52.164;4.472;2022-11-21T03:29:40;41.25;;;38.89;;
66669;SDS011;53568;52.164;4.472;2022-11-21T03:32:05;40.63;;;38.54;;
66669;SDS011;53568;52.164;4.472;2022-11-21T03:34:31;39.87;;;38.08;;
66669;SDS011;53568;52.164;4.472;2022-11-21T03:36:56;39.81;;;37.79;;
66669;SDS011;53568;52.164;4.472;2022-11-21T03:39:22;38.84;;;36.95;;
66669;SDS011;53568;52.164;4.472;2022-11-21T03:41:47;36.40;;;35.14;;
66669;SDS011;53568;52.164;4.472;2022-11-21T03:44:13;40.35;;;37.99;;
66669;SDS011;53568;52.164;4.472;2022-11-21T03:46:39;38.93;;;36.99;;
66669;SDS011;53568;52.164;4.472;2022-11-21T03:49:07;40.41;;;37.98;;
66669;SDS011;53568;52.164;4.472;2022-11-21T03:51:33;41.87;;;39.14;;
66669;SDS011;53568;52.164;4.472;2022-11-21T03:53:59;40.57;;;38.38;;
66669;SDS011;53568;52.164;4.472;2022-11-21T03:56:25;39.81;;;37.46;;
66669;SDS011;53568;52.164;4.472;2022-11-21T03:58:51;39.67;;;37.68;;
66669;SDS011;53568;52.164;4.472;2022-11-21T04:01:17;38.05;;;36.40;;
66669;SDS011;53568;52.164;4.472;2022-11-21T04:03:43;38.51;;;36.60;;
66669;SDS011;53568;52.164;4.472;2022-11-21T04:06:10;41.17;;;38.69;;
66669;SDS011;53568;52.164;4.472;2022-11-21T04:08:37;40.97;;;38.44;;
66669;SDS011;53568;52.164;4.472;2022-11-21T04:11:06;38.98;;;37.01;;
66669;SDS011;53568;52.164;4.472;2022-11-21T04:13:32;36.90;;;35.48;;
66669;SDS011;53568;52.164;4.472;2022-11-21T04:15:58;37.90;;;35.83;;
66669;SDS011;53568;52.164;4.472;2022-11-21T04:18:24;35.47;;;33.80;;
66669;SDS011;53568;52.164;4.472;2022-11-21T04:21:00;34.40;;;33.11;;
66669;SDS011;53568;52.164;4.472;2022-11-21T04:23:28;33.34;;;32.22;;
66669;SDS011;53568;52.164;4.472;2022-11-21T04:25:54;32.64;;;31.30;;
66669;SDS011;53568;52.164;4.472;2022-11-21T04:28:22;33.69;;;32.45;;
66669;SDS011;53568;52.164;4.472;2022-11-21T04:30:48;33.20;;;31.94;;
66669;SDS011;53568;52.164;4.472;2022-11-21T04:33:14;32.62;;;31.49;;
66669;SDS011;53568;52.164;4.472;2022-11-21T04:35:41;32.70;;;31.59;;
66669;SDS011;53568;52.164;4.472;2022-11-21T04:38:08;32.45;;;31.29;;
66669;SDS011;53568;52.164;4.472;2022-11-21T04:40:34;32.14;;;31.00;;
66669;SDS011;53568;52.164;4.472;2022-11-21T04:43:00;32.03;;;30.83;;
66669;SDS011;53568;52.164;4.472;2022-11-21T04:45:26;31.39;;;30.19;;
66669;SDS011;53568;52.164;4.472;2022-11-21T04:47:51;31.39;;;30.37;;
66669;SDS011;53568;52.164;4.472;2022-11-21T04:50:17;30.97;;;29.86;;
66669;SDS011;53568;52.164;4.472;2022-11-21T04:52:49;30.49;;;29.39;;
66669;SDS011;53568;52.164;4.472;2022-11-21T04:55:17;31.21;;;29.82;;
66669;SDS011;53568;52.164;4.472;2022-11-21T04:57:44;29.48;;;28.74;;
66669;SDS011;53568;52.164;4.472;2022-11-21T05:00:10;29.78;;;28.93;;
66669;SDS011;53568;52.164;4.472;2022-11-21T05:02:37;31.25;;;30.01;;
66669;SDS011;53568;52.164;4.472;2022-11-21T05:05:02;29.37;;;28.37;;
66669;SDS011;53568;52.164;4.472;2022-11-21T05:07:28;29.03;;;28.30;;
66669;SDS011;53568;52.164;4.472;2022-11-21T05:09:54;29.56;;;28.40;;
66669;SDS011;53568;52.164;4.472;2022-11-21T05:12:19;29.62;;;28.71;;
66669;SDS011;53568;52.164;4.472;2022-11-21T05:15:03;29.90;;;29.20;;
66669;SDS011;53568;52.164;4.472;2022-11-21T05:17:29;29.90;;;29.20;;
66669;SDS011;53568;52.164;4.472;2022-11-21T05:19:55;30.24;;;29.40;;
66669;SDS011;53568;52.164;4.472;2022-11-21T05:22:20;30.77;;;29.72;;
66669;SDS011;53568;52.164;4.472;2022-11-21T05:24:46;31.33;;;30.22;;
66669;SDS011;53568;52.164;4.472;2022-11-21T05:27:11;30.08;;;29.26;;
66669;SDS011;53568;52.164;4.472;2022-11-21T05:29:37;29.66;;;28.80;;
66669;SDS011;53568;52.164;4.472;2022-11-21T05:32:05;30.27;;;29.28;;
66669;SDS011;53568;52.164;4.472;2022-11-21T05:34:30;29.50;;;28.67;;
66669;SDS011;53568;52.164;4.472;2022-11-21T05:36:56;29.45;;;28.24;;
66669;SDS011;53568;52.164;4.472;2022-11-21T05:39:25;28.45;;;27.68;;
66669;SDS011;53568;52.164;4.472;2022-11-21T05:41:51;28.88;;;28.09;;
66669;SDS011;53568;52.164;4.472;2022-11-21T05:44:17;28.98;;;28.08;;
66669;SDS011;53568;52.164;4.472;2022-11-21T05:46:43;28.57;;;27.76;;
66669;SDS011;53568;52.164;4.472;2022-11-21T05:49:09;28.92;;;27.97;;
66669;SDS011;53568;52.164;4.472;2022-11-21T05:51:35;27.81;;;27.03;;
66669;SDS011;53568;52.164;4.472;2022-11-21T05:54:00;27.85;;;26.99;;
66669;SDS011;53568;52.164;4.472;2022-11-21T05:56:26;27.93;;;26.95;;
66669;SDS011;53568;52.164;4.472;2022-11-21T05:58:55;28.49;;;27.51;;
66669;SDS011;53568;52.164;4.472;2022-11-21T06:01:22;27.29;;;26.42;;
66669;SDS011;53568;52.164;4.472;2022-11-21T06:04:07;27.14;;;26.41;;
66669;SDS011;53568;52.164;4.472;2022-11-21T06:06:33;28.76;;;27.56;;
66669;SDS011;53568;52.164;4.472;2022-11-21T06:08:59;28.66;;;27.45;;
66669;SDS011;53568;52.164;4.472;2022-11-21T06:11:25;27.92;;;27.14;;
66669;SDS011;53568;52.164;4.472;2022-11-21T06:13:51;28.06;;;27.39;;
66669;SDS011;53568;52.164;4.472;2022-11-21T06:16:18;26.07;;;25.77;;
66669;SDS011;53568;52.164;4.472;2022-11-21T06:18:46;27.16;;;26.48;;
66669;SDS011;53568;52.164;4.472;2022-11-21T06:21:21;27.73;;;26.84;;
66669;SDS011;53568;52.164;4.472;2022-11-21T06:23:49;28.35;;;27.66;;
66669;SDS011;53568;52.164;4.472;2022-11-21T06:26:17;27.36;;;26.72;;
66669;SDS011;53568;52.164;4.472;2022-11-21T06:28:45;29.47;;;28.67;;
66669;SDS011;53568;52.164;4.472;2022-11-21T06:31:13;27.42;;;26.84;;
66669;SDS011;53568;52.164;4.472;2022-11-21T06:33:43;28.97;;;28.14;;
66669;SDS011;53568;52.164;4.472;2022-11-21T06:36:10;26.86;;;26.36;;
66669;SDS011;53568;52.164;4.472;2022-11-21T06:38:38;27.29;;;26.97;;
66669;SDS011;53568;52.164;4.472;2022-11-21T06:41:04;27.08;;;26.54;;
66669;SDS011;53568;52.164;4.472;2022-11-21T06:43:38;27.86;;;27.01;;
66669;SDS011;53568;52.164;4.472;2022-11-21T06:46:04;27.77;;;26.83;;
66669;SDS011;53568;52.164;4.472;2022-11-21T06:48:30;27.90;;;26.89;;
66669;SDS011;53568;52.164;4.472;2022-11-21T06:50:56;27.75;;;26.73;;
66669;SDS011;53568;52.164;4.472;2022-11-21T06:53:22;27.68;;;27.04;;
66669;SDS011;53568;52.164;4.472;2022-11-21T06:55:48;26.56;;;26.25;;
66669;SDS011;53568;52.164;4.472;2022-11-21T06:58:13;26.30;;;25.84;;
66669;SDS011;53568;52.164;4.472;2022-11-21T07:00:39;27.01;;;26.12;;
66669;SDS011;53568;52.164;4.472;2022-11-21T07:03:05;27.10;;;26.11;;
66669;SDS011;53568;52.164;4.472;2022-11-21T07:05:30;25.50;;;25.04;;
66669;SDS011;53568;52.164;4.472;2022-11-21T07:07:57;25.85;;;25.31;;
66669;SDS011;53568;52.164;4.472;2022-11-21T07:10:24;25.27;;;24.63;;
66669;SDS011;53568;52.164;4.472;2022-11-21T07:12:49;23.72;;;23.44;;
66669;SDS011;53568;52.164;4.472;2022-11-21T07:15:33;24.57;;;23.97;;
66669;SDS011;53568;52.164;4.472;2022-11-21T07:18:00;23.70;;;23.55;;
66669;SDS011;53568;52.164;4.472;2022-11-21T07:20:26;24.43;;;24.14;;
66669;SDS011;53568;52.164;4.472;2022-11-21T07:22:55;24.60;;;24.08;;
66669;SDS011;53568;52.164;4.472;2022-11-21T07:25:21;25.34;;;24.61;;
66669;SDS011;53568;52.164;4.472;2022-11-21T07:27:49;24.68;;;23.82;;
66669;SDS011;53568;52.164;4.472;2022-11-21T07:30:15;23.83;;;23.61;;
66669;SDS011;53568;52.164;4.472;2022-11-21T07:32:40;24.90;;;24.37;;
66669;SDS011;53568;52.164;4.472;2022-11-21T07:35:06;25.16;;;24.55;;
66669;SDS011;53568;52.164;4.472;2022-11-21T07:37:35;25.88;;;25.29;;
66669;SDS011;53568;52.164;4.472;2022-11-21T07:40:02;25.31;;;24.86;;
66669;SDS011;53568;52.164;4.472;2022-11-21T07:42:28;27.67;;;26.85;;
66669;SDS011;53568;52.164;4.472;2022-11-21T07:44:53;26.25;;;25.81;;
66669;SDS011;53568;52.164;4.472;2022-11-21T07:47:19;29.90;;;28.50;;
66669;SDS011;53568;52.164;4.472;2022-11-21T07:49:44;26.55;;;25.90;;
66669;SDS011;53568;52.164;4.472;2022-11-21T07:52:10;28.86;;;27.72;;
66669;SDS011;53568;52.164;4.472;2022-11-21T07:54:35;27.21;;;26.04;;
66669;SDS011;53568;52.164;4.472;2022-11-21T07:57:01;25.30;;;24.94;;
66669;SDS011;53568;52.164;4.472;2022-11-21T07:59:26;32.96;;;29.88;;
66669;SDS011;53568;52.164;4.472;2022-11-21T08:01:52;34.78;;;31.64;;
66669;SDS011;53568;52.164;4.472;2022-11-21T08:04:17;34.32;;;30.15;;
66669;SDS011;53568;52.164;4.472;2022-11-21T08:06:43;40.97;;;35.04;;
66669;SDS011;53568;52.164;4.472;2022-11-21T08:09:09;31.98;;;29.34;;
66669;SDS011;53568;52.164;4.472;2022-11-21T08:11:35;40.34;;;34.23;;
66669;SDS011;53568;52.164;4.472;2022-11-21T08:14:01;37.34;;;31.87;;
66669;SDS011;53568;52.164;4.472;2022-11-21T08:16:27;40.05;;;33.99;;
66669;SDS011;53568;52.164;4.472;2022-11-21T08:18:54;33.06;;;29.20;;
66669;SDS011;53568;52.164;4.472;2022-11-21T08:21:20;24.85;;;23.90;;
66669;SDS011;53568;52.164;4.472;2022-11-21T08:23:46;35.82;;;30.94;;
66669;SDS011;53568;52.164;4.472;2022-11-21T08:26:11;28.49;;;25.48;;
66669;SDS011;53568;52.164;4.472;2022-11-21T08:28:37;22.37;;;21.82;;
66669;SDS011;53568;52.164;4.472;2022-11-21T08:31:03;28.93;;;26.27;;
66669;SDS011;53568;52.164;4.472;2022-11-21T08:33:29;31.35;;;27.84;;
66669;SDS011;53568;52.164;4.472;2022-11-21T08:35:55;32.45;;;27.69;;
66669;SDS011;53568;52.164;4.472;2022-11-21T08:38:20;26.68;;;24.58;;
66669;SDS011;53568;52.164;4.472;2022-11-21T08:40:46;24.47;;;22.22;;
66669;SDS011;53568;52.164;4.472;2022-11-21T08:43:11;37.56;;;31.49;;
66669;SDS011;53568;52.164;4.472;2022-11-21T08:45:37;27.80;;;24.68;;
66669;SDS011;53568;52.164;4.472;2022-11-21T08:48:07;22.70;;;21.86;;
66669;SDS011;53568;52.164;4.472;2022-11-21T08:50:35;19.96;;;19.77;;
66669;SDS011;53568;52.164;4.472;2022-11-21T08:53:01;22.06;;;21.68;;
66669;SDS011;53568;52.164;4.472;2022-11-21T08:55:27;19.76;;;19.48;;
66669;SDS011;53568;52.164;4.472;2022-11-21T08:57:53;23.09;;;22.20;;
66669;SDS011;53568;52.164;4.472;2022-11-21T09:00:19;25.65;;;24.01;;
66669;SDS011;53568;52.164;4.472;2022-11-21T09:02:44;41.70;;;32.95;;
66669;SDS011;53568;52.164;4.472;2022-11-21T09:05:10;24.31;;;22.89;;
66669;SDS011;53568;52.164;4.472;2022-11-21T09:07:35;20.86;;;20.40;;
66669;SDS011;53568;52.164;4.472;2022-11-21T09:10:01;21.68;;;21.27;;
66669;SDS011;53568;52.164;4.472;2022-11-21T09:12:27;20.59;;;20.47;;
66669;SDS011;53568;52.164;4.472;2022-11-21T09:14:52;21.34;;;21.08;;
66669;SDS011;53568;52.164;4.472;2022-11-21T09:17:36;20.50;;;20.30;;
66669;SDS011;53568;52.164;4.472;2022-11-21T09:20:20;21.13;;;20.86;;
66669;SDS011;53568;52.164;4.472;2022-11-21T09:22:46;19.07;;;18.74;;
66669;SDS011;53568;52.164;4.472;2022-11-21T09:25:11;19.15;;;19.09;;
66669;SDS011;53568;52.164;4.472;2022-11-21T09:27:37;19.32;;;19.05;;
66669;SDS011;53568;52.164;4.472;2022-11-21T09:30:02;19.37;;;19.27;;
66669;SDS011;53568;52.164;4.472;2022-11-21T09:32:28;19.64;;;19.43;;
66669;SDS011;53568;52.164;4.472;2022-11-21T09:34:54;19.82;;;19.56;;
66669;SDS011;53568;52.164;4.472;2022-11-21T09:37:20;20.35;;;20.13;;
66669;SDS011;53568;52.164;4.472;2022-11-21T09:39:45;19.13;;;19.11;;
66669;SDS011;53568;52.164;4.472;2022-11-21T09:48:02;19.09;;;19.03;;
66669;SDS011;53568;52.164;4.472;2022-11-21T09:50:40;18.42;;;18.37;;
66669;SDS011;53568;52.164;4.472;2022-11-21T09:53:12;18.65;;;18.43;;
66669;SDS011;53568;52.164;4.472;2022-11-21T09:55:48;18.24;;;18.05;;
66669;SDS011;53568;52.164;4.472;2022-11-21T09:58:22;17.74;;;17.54;;
66669;SDS011;53568;52.164;4.472;2022-11-21T10:00:58;17.93;;;17.73;;
66669;SDS011;53568;52.164;4.472;2022-11-21T10:03:25;18.48;;;18.15;;
66669;SDS011;53568;52.164;4.472;2022-11-21T10:06:16;17.82;;;17.71;;
66669;SDS011;53568;52.164;4.472;2022-11-21T10:14:44;17.67;;;17.50;;
66669;SDS011;53568;52.164;4.472;2022-11-21T10:17:21;17.49;;;17.35;;
66669;SDS011;53568;52.164;4.472;2022-11-21T10:25:56;16.48;;;16.22;;
66669;SDS011;53568;52.164;4.472;2022-11-21T10:31:16;15.77;;;15.62;;
66669;SDS011;53568;52.164;4.472;2022-11-21T10:33:43;15.15;;;15.06;;
66669;SDS011;53568;52.164;4.472;2022-11-21T10:39:06;13.28;;;13.27;;
66669;SDS011;53568;52.164;4.472;2022-11-21T10:41:49;13.01;;;13.00;;
66669;SDS011;53568;52.164;4.472;2022-11-21T10:44:26;12.33;;;12.32;;
66669;SDS011;53568;52.164;4.472;2022-11-21T10:47:21;11.35;;;11.33;;
66669;SDS011;53568;52.164;4.472;2022-11-21T10:56:16;8.35;;;8.33;;
66669;SDS011;53568;52.164;4.472;2022-11-21T10:58:49;7.96;;;7.93;;
66669;SDS011;53568;52.164;4.472;2022-11-21T11:01:24;7.51;;;7.46;;
66669;SDS011;53568;52.164;4.472;2022-11-21T11:04:04;6.81;;;6.79;;
66669;SDS011;53568;52.164;4.472;2022-11-21T11:06:40;6.25;;;6.25;;
66669;SDS011;53568;52.164;4.472;2022-11-21T11:12:18;5.96;;;5.96;;
66669;SDS011;53568;52.164;4.472;2022-11-21T11:15:20;5.92;;;5.91;;
66669;SDS011;53568;52.164;4.472;2022-11-21T11:18:01;5.65;;;5.62;;
66669;SDS011;53568;52.164;4.472;2022-11-21T11:20:38;5.56;;;5.50;;
66669;SDS011;53568;52.164;4.472;2022-11-21T11:25:48;5.69;;;5.62;;
66669;SDS011;53568;52.164;4.472;2022-11-21T11:28:18;5.75;;;5.74;;
66669;SDS011;53568;52.164;4.472;2022-11-21T11:30:45;6.01;;;6.00;;
66669;SDS011;53568;52.164;4.472;2022-11-21T11:38:39;6.46;;;6.46;;
66669;SDS011;53568;52.164;4.472;2022-11-21T11:41:18;6.59;;;6.59;;
66669;SDS011;53568;52.164;4.472;2022-11-21T11:44:32;7.15;;;7.15;;
66669;SDS011;53568;52.164;4.472;2022-11-21T11:47:28;7.06;;;7.05;;
66669;SDS011;53568;52.164;4.472;2022-11-21T11:50:07;6.95;;;6.94;;
66669;SDS011;53568;52.164;4.472;2022-11-21T11:55:19;6.81;;;6.76;;
66669;SDS011;53568;52.164;4.472;2022-11-21T11:57:51;7.06;;;6.99;;
66669;SDS011;53568;52.164;4.472;2022-11-21T12:00:29;6.48;;;6.46;;
66669;SDS011;53568;52.164;4.472;2022-11-21T12:05:49;6.78;;;6.67;;
66669;SDS011;53568;52.164;4.472;2022-11-21T12:08:23;6.86;;;6.79;;
66669;SDS011;53568;52.164;4.472;2022-11-21T12:11:04;7.26;;;7.23;;
66669;SDS011;53568;52.164;4.472;2022-11-21T12:13:58;7.05;;;7.03;;
66669;SDS011;53568;52.164;4.472;2022-11-21T12:17:08;7.32;;;7.27;;
66669;SDS011;53568;52.164;4.472;2022-11-21T12:19:35;7.36;;;7.28;;
66669;SDS011;53568;52.164;4.472;2022-11-21T12:22:03;7.51;;;7.40;;
66669;SDS011;53568;52.164;4.472;2022-11-21T12:24:31;7.85;;;7.68;;
66669;SDS011;53568;52.164;4.472;2022-11-21T12:27:14;7.68;;;7.47;;
66669;SDS011;53568;52.164;4.472;2022-11-21T12:29:58;7.59;;;7.32;;
66669;SDS011;53568;52.164;4.472;2022-11-21T12:35:41;7.39;;;7.14;;
66669;SDS011;53568;52.164;4.472;2022-11-21T12:47:17;6.70;;;6.49;;
66669;SDS011;53568;52.164;4.472;2022-11-21T12:50:01;6.93;;;6.75;;
66669;SDS011;53568;52.164;4.472;2022-11-21T12:53:01;5.96;;;5.85;;
66669;SDS011;53568;52.164;4.472;2022-11-21T12:56:02;6.09;;;5.96;;
66669;SDS011;53568;52.164;4.472;2022-11-21T12:58:38;5.98;;;5.89;;
66669;SDS011;53568;52.164;4.472;2022-11-21T13:06:22;6.55;;;6.41;;
66669;SDS011;53568;52.164;4.472;2022-11-21T13:08:52;6.36;;;6.21;;
66669;SDS011;53568;52.164;4.472;2022-11-21T13:20:05;6.35;;;6.26;;
66669;SDS011;53568;52.164;4.472;2022-11-21T13:38:28;6.61;;;6.57;;
66669;SDS011;53568;52.164;4.472;2022-11-21T13:40:53;6.23;;;6.19;;
66669;SDS011;53568;52.164;4.472;2022-11-21T13:43:37;6.54;;;6.50;;
66669;SDS011;53568;52.164;4.472;2022-11-21T13:46:03;6.45;;;6.45;;
66669;SDS011;53568;52.164;4.472;2022-11-21T13:57:11;6.27;;;6.27;;
66669;SDS011;53568;52.164;4.472;2022-11-21T14:00:16;6.18;;;6.18;;
66669;SDS011;53568;52.164;4.472;2022-11-21T14:08:23;5.46;;;5.46;;
66669;SDS011;53568;52.164;4.472;2022-11-21T14:10:52;5.49;;;5.49;;
66669;SDS011;53568;52.164;4.472;2022-11-21T14:13:21;5.02;;;4.98;;
66669;SDS011;53568;52.164;4.472;2022-11-21T14:15:51;5.64;;;5.61;;
66669;SDS011;53568;52.164;4.472;2022-11-21T14:18:27;5.52;;;5.47;;
66669;SDS011;53568;52.164;4.472;2022-11-21T14:20:59;5.30;;;5.27;;
66669;SDS011;53568;52.164;4.472;2022-11-21T14:23:29;5.53;;;5.48;;
66669;SDS011;53568;52.164;4.472;2022-11-21T14:25:59;5.58;;;5.52;;
66669;SDS011;53568;52.164;4.472;2022-11-21T14:28:32;5.47;;;5.36;;
66669;SDS011;53568;52.164;4.472;2022-11-21T14:33:37;5.28;;;5.23;;
66669;SDS011;53568;52.164;4.472;2022-11-21T14:46:26;5.44;;;5.39;;
66669;SDS011;53568;52.164;4.472;2022-11-21T14:48:53;5.48;;;5.41;;
66669;SDS011;53568;52.164;4.472;2022-11-21T14:51:24;5.45;;;5.37;;
66669;SDS011;53568;52.164;4.472;2022-11-21T14:53:54;5.54;;;5.45;;
66669;SDS011;53568;52.164;4.472;2022-11-21T14:56:28;5.69;;;5.59;;
66669;SDS011;53568;52.164;4.472;2022-11-21T14:58:57;5.28;;;5.19;;
66669;SDS011;53568;52.164;4.472;2022-11-21T15:01:30;5.74;;;5.65;;
66669;SDS011;53568;52.164;4.472;2022-11-21T15:04:02;5.45;;;5.36;;
66669;SDS011;53568;52.164;4.472;2022-11-21T15:06:30;5.57;;;5.42;;
66669;SDS011;53568;52.164;4.472;2022-11-21T15:09:10;5.81;;;5.67;;
66669;SDS011;53568;52.164;4.472;2022-11-21T15:11:38;5.61;;;5.54;;
66669;SDS011;53568;52.164;4.472;2022-11-21T15:14:16;5.78;;;5.71;;
66669;SDS011;53568;52.164;4.472;2022-11-21T15:16:48;5.70;;;5.64;;
66669;SDS011;53568;52.164;4.472;2022-11-21T15:19:20;5.51;;;5.48;;
66669;SDS011;53568;52.164;4.472;2022-11-21T15:21:52;5.93;;;5.85;;
66669;SDS011;53568;52.164;4.472;2022-11-21T15:24:27;6.20;;;6.09;;
66669;SDS011;53568;52.164;4.472;2022-11-21T15:32:33;5.98;;;5.91;;
66669;SDS011;53568;52.164;4.472;2022-11-21T15:34:59;6.00;;;5.97;;
66669;SDS011;53568;52.164;4.472;2022-11-21T15:37:47;5.91;;;5.85;;
66669;SDS011;53568;52.164;4.472;2022-11-21T15:40:17;6.01;;;5.90;;
66669;SDS011;53568;52.164;4.472;2022-11-21T15:42:44;6.29;;;6.22;;
66669;SDS011;53568;52.164;4.472;2022-11-21T15:47:38;6.47;;;6.38;;
66669;SDS011;53568;52.164;4.472;2022-11-21T15:50:04;6.43;;;6.31;;
66669;SDS011;53568;52.164;4.472;2022-11-21T15:52:31;6.51;;;6.41;;
66669;SDS011;53568;52.164;4.472;2022-11-21T15:55:09;6.45;;;6.35;;
66669;SDS011;53568;52.164;4.472;2022-11-21T15:57:43;6.47;;;6.31;;
66669;SDS011;53568;52.164;4.472;2022-11-21T16:00:09;7.02;;;6.85;;
66669;SDS011;53568;52.164;4.472;2022-11-21T16:02:35;7.46;;;7.30;;
66669;SDS011;53568;52.164;4.472;2022-11-21T16:05:01;7.81;;;7.70;;
66669;SDS011;53568;52.164;4.472;2022-11-21T16:07:27;6.72;;;6.62;;
66669;SDS011;53568;52.164;4.472;2022-11-21T16:09:52;6.48;;;6.43;;
66669;SDS011;53568;52.164;4.472;2022-11-21T16:12:20;6.67;;;6.60;;
66669;SDS011;53568;52.164;4.472;2022-11-21T16:14:45;6.69;;;6.58;;
66669;SDS011;53568;52.164;4.472;2022-11-21T16:17:11;6.67;;;6.58;;
66669;SDS011;53568;52.164;4.472;2022-11-21T16:19:36;6.71;;;6.56;;
66669;SDS011;53568;52.164;4.472;2022-11-21T16:22:02;6.89;;;6.79;;
66669;SDS011;53568;52.164;4.472;2022-11-21T16:24:27;6.61;;;6.55;;
66669;SDS011;53568;52.164;4.472;2022-11-21T16:26:53;6.69;;;6.62;;
66669;SDS011;53568;52.164;4.472;2022-11-21T16:29:19;7.05;;;7.01;;
66669;SDS011;53568;52.164;4.472;2022-11-21T16:31:45;6.75;;;6.70;;
66669;SDS011;53568;52.164;4.472;2022-11-21T16:34:10;6.70;;;6.69;;
66669;SDS011;53568;52.164;4.472;2022-11-21T16:36:36;6.89;;;6.88;;
66669;SDS011;53568;52.164;4.472;2022-11-21T16:39:01;6.63;;;6.60;;
66669;SDS011;53568;52.164;4.472;2022-11-21T16:41:27;6.34;;;6.27;;
66669;SDS011;53568;52.164;4.472;2022-11-21T16:43:53;6.75;;;6.71;;
66669;SDS011;53568;52.164;4.472;2022-11-21T16:46:20;6.11;;;6.05;;
66669;SDS011;53568;52.164;4.472;2022-11-21T16:48:48;6.25;;;6.14;;
66669;SDS011;53568;52.164;4.472;2022-11-21T16:51:17;6.35;;;6.22;;
66669;SDS011;53568;52.164;4.472;2022-11-21T16:53:45;6.41;;;6.37;;
66669;SDS011;53568;52.164;4.472;2022-11-21T16:56:12;6.45;;;6.43;;